首页
METAR-TAF:

METAR-TAF

机场 :

Person County Airport

Roxboro, 北卡罗来纳州, 美国

纬度: 36-17-06N, 经度: 078-59-03W, 海拔: 186米

当前天气观测

该预报发布于23分钟前的15:55 UTC
风速3节,风向
温度 24°C
湿度 78%
气压 1016 hPa
能見度: 16.1公里
多云层高于1500英尺
多云层高于2400英尺
阴天层高于3100英尺

METAR: KTDF 051555Z AUTO 18003KT 10SM BKN015 BKN024 OVC031 24/20 A3001 RMK AO2

时间: 12:18 (16:18 UTC)


TAF: 丢失

超过4000个机场的气象观测和天气预报(METAR&TAF报告)。

可查询的气象台以黄色和红色小点在地图上表示。

将鼠标移到小点上方,可查看气象台名称。

然后点击查看天气观测和预报。

如需切换地图:点击带黑十字的绿色按钮放大地图;点击带横线的绿色按钮缩小地图;或者点击绿色箭头查看邻近地区的地图。


METAR-TAF: